Arlington, Maryland
Current Conditions -  °F | °C
As of 7:54 PM on Monday 24 Nov 2014 (Local Time) from KBWI Reporting Station
Clear Clear  
Wind Chill: 65°   Ceiling: Unl
Heat Index: 65°   Visibility: 10mi
Dew Point: 53°   Wind: 7mph
Humidity: 65%   Direction: 190°S
Pressure: 29.7"   Gusts: NA
Location:  39.3453°N, 76.6832°W
Report Text: KBWI 250054Z 19006KT 10SM CLR 18/12 A2970 RMK AO2 SLP056 T01830117
Loading
Personal Weather Stations






























Interactive Weather Map New forecast layout! Learn more

10-Day Weather Forecast

Advertisements
Track Severe Weather on mobile